sensor_id;sensor_type;location;lat;lon;timestamp;P1;durP1;ratioP1;P2;durP2;ratioP2
17949;SDS011;9100;48.700;9.316;2023-07-13T00:00:06;1.4;;;1.3;;
17949;SDS011;9100;48.700;9.316;2023-07-13T00:01:06;1.4;;;1.3;;
17949;SDS011;9100;48.700;9.316;2023-07-13T00:01:17;1.5;;;1.2;;
17949;SDS011;9100;48.700;9.316;2023-07-13T00:02:06;1.5;;;1.2;;
17949;SDS011;9100;48.700;9.316;2023-07-13T00:03:06;1.5;;;1.2;;
17949;SDS011;9100;48.700;9.316;2023-07-13T00:04:06;1.5;;;1.2;;
17949;SDS011;9100;48.700;9.316;2023-07-13T00:05:06;1.5;;;1.2;;
17949;SDS011;9100;48.700;9.316;2023-07-13T00:06:06;1.5;;;1.2;;
17949;SDS011;9100;48.700;9.316;2023-07-13T00:06:17;1.4;;;1.3;;
17949;SDS011;9100;48.700;9.316;2023-07-13T00:07:06;1.4;;;1.3;;
17949;SDS011;9100;48.700;9.316;2023-07-13T00:08:06;1.4;;;1.3;;
17949;SDS011;9100;48.700;9.316;2023-07-13T00:10:06;1.4;;;1.3;;
17949;SDS011;9100;48.700;9.316;2023-07-13T00:11:06;1.4;;;1.3;;
17949;SDS011;9100;48.700;9.316;2023-07-13T00:11:17;4.4;;;1.2;;
17949;SDS011;9100;48.700;9.316;2023-07-13T00:12:21;4.4;;;1.2;;
17949;SDS011;9100;48.700;9.316;2023-07-13T00:13:06;4.4;;;1.2;;
17949;SDS011;9100;48.700;9.316;2023-07-13T00:14:06;4.4;;;1.2;;
17949;SDS011;9100;48.700;9.316;2023-07-13T00:15:07;4.4;;;1.2;;
17949;SDS011;9100;48.700;9.316;2023-07-13T00:16:06;4.4;;;1.2;;
17949;SDS011;9100;48.700;9.316;2023-07-13T00:16:17;1.5;;;1.4;;
17949;SDS011;9100;48.700;9.316;2023-07-13T00:17:06;1.5;;;1.4;;
17949;SDS011;9100;48.700;9.316;2023-07-13T00:18:06;1.5;;;1.4;;
17949;SDS011;9100;48.700;9.316;2023-07-13T00:19:06;1.5;;;1.4;;
17949;SDS011;9100;48.700;9.316;2023-07-13T00:20:06;1.5;;;1.4;;
17949;SDS011;9100;48.700;9.316;2023-07-13T00:21:06;1.5;;;1.4;;
17949;SDS011;9100;48.700;9.316;2023-07-13T00:21:17;3.5;;;1.5;;
17949;SDS011;9100;48.700;9.316;2023-07-13T00:22:06;3.5;;;1.5;;
17949;SDS011;9100;48.700;9.316;2023-07-13T00:23:06;3.5;;;1.5;;
17949;SDS011;9100;48.700;9.316;2023-07-13T00:24:06;3.5;;;1.5;;
17949;SDS011;9100;48.700;9.316;2023-07-13T00:25:06;3.5;;;1.5;;
17949;SDS011;9100;48.700;9.316;2023-07-13T00:26:08;3.5;;;1.5;;
17949;SDS011;9100;48.700;9.316;2023-07-13T00:26:17;4.3;;;1.6;;
17949;SDS011;9100;48.700;9.316;2023-07-13T00:27:06;4.3;;;1.6;;
17949;SDS011;9100;48.700;9.316;2023-07-13T00:28:06;4.3;;;1.6;;
17949;SDS011;9100;48.700;9.316;2023-07-13T00:29:06;4.3;;;1.6;;
17949;SDS011;9100;48.700;9.316;2023-07-13T00:30:06;4.3;;;1.6;;
17949;SDS011;9100;48.700;9.316;2023-07-13T00:31:06;4.3;;;1.6;;
17949;SDS011;9100;48.700;9.316;2023-07-13T00:31:17;1.6;;;1.4;;
17949;SDS011;9100;48.700;9.316;2023-07-13T00:32:06;1.6;;;1.4;;
17949;SDS011;9100;48.700;9.316;2023-07-13T00:33:06;1.6;;;1.4;;
17949;SDS011;9100;48.700;9.316;2023-07-13T00:34:06;1.6;;;1.4;;
17949;SDS011;9100;48.700;9.316;2023-07-13T00:35:06;1.6;;;1.4;;
17949;SDS011;9100;48.700;9.316;2023-07-13T00:36:06;1.6;;;1.4;;
17949;SDS011;9100;48.700;9.316;2023-07-13T00:36:17;3.3;;;1.5;;
17949;SDS011;9100;48.700;9.316;2023-07-13T00:37:06;3.3;;;1.5;;
17949;SDS011;9100;48.700;9.316;2023-07-13T00:38:06;3.3;;;1.5;;
17949;SDS011;9100;48.700;9.316;2023-07-13T00:39:06;3.3;;;1.5;;
17949;SDS011;9100;48.700;9.316;2023-07-13T00:40:06;3.3;;;1.5;;
17949;SDS011;9100;48.700;9.316;2023-07-13T00:42:06;1.6;;;1.5;;
17949;SDS011;9100;48.700;9.316;2023-07-13T00:43:08;1.6;;;1.5;;
17949;SDS011;9100;48.700;9.316;2023-07-13T00:44:08;1.6;;;1.5;;
17949;SDS011;9100;48.700;9.316;2023-07-13T00:46:02;1.6;;;1.5;;
17949;SDS011;9100;48.700;9.316;2023-07-13T00:46:15;1.6;;;1.5;;
17949;SDS011;9100;48.700;9.316;2023-07-13T00:46:19;2.7;;;1.5;;
17949;SDS011;9100;48.700;9.316;2023-07-13T00:47:06;2.7;;;1.5;;
17949;SDS011;9100;48.700;9.316;2023-07-13T00:48:06;2.7;;;1.5;;
17949;SDS011;9100;48.700;9.316;2023-07-13T00:49:06;2.7;;;1.5;;
17949;SDS011;9100;48.700;9.316;2023-07-13T00:50:06;2.7;;;1.5;;
17949;SDS011;9100;48.700;9.316;2023-07-13T00:51:06;2.7;;;1.5;;
17949;SDS011;9100;48.700;9.316;2023-07-13T00:51:18;2.9;;;1.4;;
17949;SDS011;9100;48.700;9.316;2023-07-13T00:52:07;2.9;;;1.4;;
17949;SDS011;9100;48.700;9.316;2023-07-13T00:53:06;2.9;;;1.4;;
17949;SDS011;9100;48.700;9.316;2023-07-13T00:54:06;2.9;;;1.4;;
17949;SDS011;9100;48.700;9.316;2023-07-13T00:55:06;2.9;;;1.4;;
17949;SDS011;9100;48.700;9.316;2023-07-13T00:56:06;2.9;;;1.4;;
17949;SDS011;9100;48.700;9.316;2023-07-13T00:56:17;3.3;;;1.2;;
17949;SDS011;9100;48.700;9.316;2023-07-13T00:57:06;3.3;;;1.2;;
17949;SDS011;9100;48.700;9.316;2023-07-13T00:58:06;3.3;;;1.2;;
17949;SDS011;9100;48.700;9.316;2023-07-13T00:59:06;3.3;;;1.2;;
17949;SDS011;9100;48.700;9.316;2023-07-13T01:00:06;3.3;;;1.2;;
17949;SDS011;9100;48.700;9.316;2023-07-13T01:01:06;3.3;;;1.2;;
17949;SDS011;9100;48.700;9.316;2023-07-13T01:01:17;1.6;;;1.2;;
17949;SDS011;9100;48.700;9.316;2023-07-13T01:02:06;1.6;;;1.2;;
17949;SDS011;9100;48.700;9.316;2023-07-13T01:03:06;1.6;;;1.2;;
17949;SDS011;9100;48.700;9.316;2023-07-13T01:04:06;1.6;;;1.2;;
17949;SDS011;9100;48.700;9.316;2023-07-13T01:05:08;1.6;;;1.2;;
17949;SDS011;9100;48.700;9.316;2023-07-13T01:06:06;1.6;;;1.2;;
17949;SDS011;9100;48.700;9.316;2023-07-13T01:06:17;2.5;;;1.3;;
17949;SDS011;9100;48.700;9.316;2023-07-13T01:07:06;2.5;;;1.3;;
17949;SDS011;9100;48.700;9.316;2023-07-13T01:08:06;2.5;;;1.3;;
17949;SDS011;9100;48.700;9.316;2023-07-13T01:09:06;2.5;;;1.3;;
17949;SDS011;9100;48.700;9.316;2023-07-13T01:10:06;2.5;;;1.3;;
17949;SDS011;9100;48.700;9.316;2023-07-13T01:11:06;2.5;;;1.3;;
17949;SDS011;9100;48.700;9.316;2023-07-13T01:11:18;2;;;1;;
17949;SDS011;9100;48.700;9.316;2023-07-13T01:12:06;2;;;1;;
17949;SDS011;9100;48.700;9.316;2023-07-13T01:13:06;2;;;1;;
17949;SDS011;9100;48.700;9.316;2023-07-13T01:14:06;2;;;1;;
17949;SDS011;9100;48.700;9.316;2023-07-13T01:15:32;2;;;1;;
17949;SDS011;9100;48.700;9.316;2023-07-13T01:16:15;2;;;1;;
17949;SDS011;9100;48.700;9.316;2023-07-13T01:16:19;3.7;;;1.2;;
17949;SDS011;9100;48.700;9.316;2023-07-13T01:17:07;3.7;;;1.2;;
17949;SDS011;9100;48.700;9.316;2023-07-13T01:18:07;3.7;;;1.2;;
17949;SDS011;9100;48.700;9.316;2023-07-13T01:19:07;3.7;;;1.2;;
17949;SDS011;9100;48.700;9.316;2023-07-13T01:20:06;3.7;;;1.2;;
17949;SDS011;9100;48.700;9.316;2023-07-13T01:21:06;3.7;;;1.2;;
17949;SDS011;9100;48.700;9.316;2023-07-13T01:21:17;6.1;;;1.5;;
17949;SDS011;9100;48.700;9.316;2023-07-13T01:22:07;6.1;;;1.5;;
17949;SDS011;9100;48.700;9.316;2023-07-13T01:23:07;6.1;;;1.5;;
17949;SDS011;9100;48.700;9.316;2023-07-13T01:24:06;6.1;;;1.5;;
17949;SDS011;9100;48.700;9.316;2023-07-13T01:25:06;6.1;;;1.5;;
17949;SDS011;9100;48.700;9.316;2023-07-13T01:26:06;6.1;;;1.5;;
17949;SDS011;9100;48.700;9.316;2023-07-13T01:26:17;1.6;;;1.5;;
17949;SDS011;9100;48.700;9.316;2023-07-13T01:27:06;1.6;;;1.5;;
17949;SDS011;9100;48.700;9.316;2023-07-13T01:28:06;1.6;;;1.5;;
17949;SDS011;9100;48.700;9.316;2023-07-13T01:29:06;1.6;;;1.5;;
17949;SDS011;9100;48.700;9.316;2023-07-13T01:30:06;1.6;;;1.5;;
17949;SDS011;9100;48.700;9.316;2023-07-13T01:31:06;1.6;;;1.5;;
17949;SDS011;9100;48.700;9.316;2023-07-13T01:31:17;1.3;;;1.2;;
17949;SDS011;9100;48.700;9.316;2023-07-13T01:32:06;1.3;;;1.2;;
17949;SDS011;9100;48.700;9.316;2023-07-13T01:33:06;1.3;;;1.2;;
17949;SDS011;9100;48.700;9.316;2023-07-13T01:34:06;1.3;;;1.2;;
17949;SDS011;9100;48.700;9.316;2023-07-13T01:35:06;1.3;;;1.2;;
17949;SDS011;9100;48.700;9.316;2023-07-13T01:36:06;1.3;;;1.2;;
17949;SDS011;9100;48.700;9.316;2023-07-13T01:36:17;2.4;;;1.5;;
17949;SDS011;9100;48.700;9.316;2023-07-13T01:37:06;2.4;;;1.5;;
17949;SDS011;9100;48.700;9.316;2023-07-13T01:38:06;2.4;;;1.5;;
17949;SDS011;9100;48.700;9.316;2023-07-13T01:39:06;2.4;;;1.5;;
17949;SDS011;9100;48.700;9.316;2023-07-13T01:40:07;2.4;;;1.5;;
17949;SDS011;9100;48.700;9.316;2023-07-13T01:41:06;2.4;;;1.5;;
17949;SDS011;9100;48.700;9.316;2023-07-13T01:41:17;1.6;;;1.4;;
17949;SDS011;9100;48.700;9.316;2023-07-13T01:42:06;1.6;;;1.4;;
17949;SDS011;9100;48.700;9.316;2023-07-13T01:43:06;1.6;;;1.4;;
17949;SDS011;9100;48.700;9.316;2023-07-13T01:44:06;1.6;;;1.4;;
17949;SDS011;9100;48.700;9.316;2023-07-13T01:45:06;1.6;;;1.4;;
17949;SDS011;9100;48.700;9.316;2023-07-13T01:46:06;1.6;;;1.4;;
17949;SDS011;9100;48.700;9.316;2023-07-13T01:46:17;3.8;;;1.3;;
17949;SDS011;9100;48.700;9.316;2023-07-13T01:47:06;3.8;;;1.3;;
17949;SDS011;9100;48.700;9.316;2023-07-13T01:48:06;3.8;;;1.3;;
17949;SDS011;9100;48.700;9.316;2023-07-13T01:49:06;3.8;;;1.3;;
17949;SDS011;9100;48.700;9.316;2023-07-13T01:50:06;3.8;;;1.3;;
17949;SDS011;9100;48.700;9.316;2023-07-13T01:51:06;3.8;;;1.3;;
17949;SDS011;9100;48.700;9.316;2023-07-13T01:51:17;2.5;;;1.3;;
17949;SDS011;9100;48.700;9.316;2023-07-13T01:52:06;2.5;;;1.3;;
17949;SDS011;9100;48.700;9.316;2023-07-13T01:53:06;2.5;;;1.3;;
17949;SDS011;9100;48.700;9.316;2023-07-13T01:54:06;2.5;;;1.3;;
17949;SDS011;9100;48.700;9.316;2023-07-13T01:55:06;2.5;;;1.3;;
17949;SDS011;9100;48.700;9.316;2023-07-13T01:56:06;2.5;;;1.3;;
17949;SDS011;9100;48.700;9.316;2023-07-13T01:56:17;1.9;;;1.6;;
17949;SDS011;9100;48.700;9.316;2023-07-13T01:57:06;1.9;;;1.6;;
17949;SDS011;9100;48.700;9.316;2023-07-13T01:58:06;1.9;;;1.6;;
17949;SDS011;9100;48.700;9.316;2023-07-13T01:59:06;1.9;;;1.6;;
17949;SDS011;9100;48.700;9.316;2023-07-13T02:00:06;1.9;;;1.6;;
17949;SDS011;9100;48.700;9.316;2023-07-13T02:01:06;1.9;;;1.6;;
17949;SDS011;9100;48.700;9.316;2023-07-13T02:01:17;2.6;;;1.4;;
17949;SDS011;9100;48.700;9.316;2023-07-13T02:02:06;2.6;;;1.4;;
17949;SDS011;9100;48.700;9.316;2023-07-13T02:03:06;2.6;;;1.4;;
17949;SDS011;9100;48.700;9.316;2023-07-13T02:04:06;2.6;;;1.4;;
17949;SDS011;9100;48.700;9.316;2023-07-13T02:05:07;2.6;;;1.4;;
17949;SDS011;9100;48.700;9.316;2023-07-13T02:06:06;2.6;;;1.4;;
17949;SDS011;9100;48.700;9.316;2023-07-13T02:06:17;1.6;;;1.5;;
17949;SDS011;9100;48.700;9.316;2023-07-13T02:07:07;1.6;;;1.5;;
17949;SDS011;9100;48.700;9.316;2023-07-13T02:08:06;1.6;;;1.5;;
17949;SDS011;9100;48.700;9.316;2023-07-13T02:09:06;1.6;;;1.5;;
17949;SDS011;9100;48.700;9.316;2023-07-13T02:10:06;1.6;;;1.5;;
17949;SDS011;9100;48.700;9.316;2023-07-13T02:11:06;1.6;;;1.5;;
17949;SDS011;9100;48.700;9.316;2023-07-13T02:11:17;2.9;;;1.6;;
17949;SDS011;9100;48.700;9.316;2023-07-13T02:12:06;2.9;;;1.6;;
17949;SDS011;9100;48.700;9.316;2023-07-13T02:13:06;2.9;;;1.6;;
17949;SDS011;9100;48.700;9.316;2023-07-13T02:14:06;2.9;;;1.6;;
17949;SDS011;9100;48.700;9.316;2023-07-13T02:15:06;2.9;;;1.6;;
17949;SDS011;9100;48.700;9.316;2023-07-13T02:16:06;2.9;;;1.6;;
17949;SDS011;9100;48.700;9.316;2023-07-13T02:16:17;2.4;;;1.4;;
17949;SDS011;9100;48.700;9.316;2023-07-13T02:17:06;2.4;;;1.4;;
17949;SDS011;9100;48.700;9.316;2023-07-13T02:18:06;2.4;;;1.4;;
17949;SDS011;9100;48.700;9.316;2023-07-13T02:19:06;2.4;;;1.4;;
17949;SDS011;9100;48.700;9.316;2023-07-13T02:20:06;2.4;;;1.4;;
17949;SDS011;9100;48.700;9.316;2023-07-13T02:21:06;2.4;;;1.4;;
17949;SDS011;9100;48.700;9.316;2023-07-13T02:21:17;4.3;;;1.5;;
17949;SDS011;9100;48.700;9.316;2023-07-13T02:22:06;4.3;;;1.5;;
17949;SDS011;9100;48.700;9.316;2023-07-13T02:23:06;4.3;;;1.5;;
17949;SDS011;9100;48.700;9.316;2023-07-13T02:24:06;4.3;;;1.5;;
17949;SDS011;9100;48.700;9.316;2023-07-13T02:25:06;4.3;;;1.5;;
17949;SDS011;9100;48.700;9.316;2023-07-13T02:26:06;4.3;;;1.5;;
17949;SDS011;9100;48.700;9.316;2023-07-13T02:26:17;1.5;;;1.4;;
17949;SDS011;9100;48.700;9.316;2023-07-13T02:27:06;1.5;;;1.4;;
17949;SDS011;9100;48.700;9.316;2023-07-13T02:28:06;1.5;;;1.4;;
17949;SDS011;9100;48.700;9.316;2023-07-13T02:29:06;1.5;;;1.4;;
17949;SDS011;9100;48.700;9.316;2023-07-13T02:30:06;1.5;;;1.4;;
17949;SDS011;9100;48.700;9.316;2023-07-13T02:31:07;1.5;;;1.4;;
17949;SDS011;9100;48.700;9.316;2023-07-13T02:31:17;1.5;;;1.4;;
17949;SDS011;9100;48.700;9.316;2023-07-13T02:32:06;1.5;;;1.4;;
17949;SDS011;9100;48.700;9.316;2023-07-13T02:33:06;1.5;;;1.4;;
17949;SDS011;9100;48.700;9.316;2023-07-13T02:34:06;1.5;;;1.4;;
17949;SDS011;9100;48.700;9.316;2023-07-13T02:35:06;1.5;;;1.4;;
17949;SDS011;9100;48.700;9.316;2023-07-13T02:36:06;1.5;;;1.4;;
17949;SDS011;9100;48.700;9.316;2023-07-13T02:36:17;3.4;;;1.4;;
17949;SDS011;9100;48.700;9.316;2023-07-13T02:37:06;3.4;;;1.4;;
17949;SDS011;9100;48.700;9.316;2023-07-13T02:38:06;3.4;;;1.4;;
17949;SDS011;9100;48.700;9.316;2023-07-13T02:39:06;3.4;;;1.4;;
17949;SDS011;9100;48.700;9.316;2023-07-13T02:40:06;3.4;;;1.4;;
17949;SDS011;9100;48.700;9.316;2023-07-13T02:41:06;3.4;;;1.4;;
17949;SDS011;9100;48.700;9.316;2023-07-13T02:41:17;3.6;;;1.4;;
17949;SDS011;9100;48.700;9.316;2023-07-13T02:42:07;3.6;;;1.4;;
17949;SDS011;9100;48.700;9.316;2023-07-13T02:43:06;3.6;;;1.4;;
17949;SDS011;9100;48.700;9.316;2023-07-13T02:44:06;3.6;;;1.4;;
17949;SDS011;9100;48.700;9.316;2023-07-13T02:45:06;3.6;;;1.4;;
17949;SDS011;9100;48.700;9.316;2023-07-13T03:26:12;2.9;;;1.4;;
17949;SDS011;9100;48.700;9.316;2023-07-13T03:26:19;2.4;;;1.8;;
17949;SDS011;9100;48.700;9.316;2023-07-13T03:27:06;2.4;;;1.8;;
17949;SDS011;9100;48.700;9.316;2023-07-13T03:28:06;2.4;;;1.8;;
17949;SDS011;9100;48.700;9.316;2023-07-13T03:29:06;2.4;;;1.8;;
17949;SDS011;9100;48.700;9.316;2023-07-13T03:30:06;2.4;;;1.8;;
17949;SDS011;9100;48.700;9.316;2023-07-13T03:31:07;2.4;;;1.8;;
17949;SDS011;9100;48.700;9.316;2023-07-13T03:31:20;2.9;;;1.4;;
17949;SDS011;9100;48.700;9.316;2023-07-13T03:32:06;2.9;;;1.4;;
17949;SDS011;9100;48.700;9.316;2023-07-13T03:33:06;2.9;;;1.4;;
17949;SDS011;9100;48.700;9.316;2023-07-13T03:34:06;2.9;;;1.4;;
17949;SDS011;9100;48.700;9.316;2023-07-13T03:35:06;2.9;;;1.4;;
17949;SDS011;9100;48.700;9.316;2023-07-13T03:36:06;2.9;;;1.4;;
17949;SDS011;9100;48.700;9.316;2023-07-13T03:36:20;7.4;;;1.7;;
17949;SDS011;9100;48.700;9.316;2023-07-13T03:37:06;7.4;;;1.7;;
17949;SDS011;9100;48.700;9.316;2023-07-13T03:38:06;7.4;;;1.7;;
17949;SDS011;9100;48.700;9.316;2023-07-13T03:39:06;7.4;;;1.7;;
17949;SDS011;9100;48.700;9.316;2023-07-13T03:40:06;7.4;;;1.7;;
17949;SDS011;9100;48.700;9.316;2023-07-13T03:41:06;7.4;;;1.7;;
17949;SDS011;9100;48.700;9.316;2023-07-13T03:41:19;1.6;;;1.5;;
17949;SDS011;9100;48.700;9.316;2023-07-13T03:42:06;1.6;;;1.5;;
17949;SDS011;9100;48.700;9.316;2023-07-13T03:43:06;1.6;;;1.5;;
17949;SDS011;9100;48.700;9.316;2023-07-13T03:44:06;1.6;;;1.5;;
17949;SDS011;9100;48.700;9.316;2023-07-13T03:45:06;1.6;;;1.5;;
17949;SDS011;9100;48.700;9.316;2023-07-13T03:46:06;1.6;;;1.5;;
17949;SDS011;9100;48.700;9.316;2023-07-13T03:46:19;1.7;;;1.6;;
17949;SDS011;9100;48.700;9.316;2023-07-13T03:47:06;1.7;;;1.6;;
17949;SDS011;9100;48.700;9.316;2023-07-13T03:48:06;1.7;;;1.6;;
17949;SDS011;9100;48.700;9.316;2023-07-13T03:49:06;1.7;;;1.6;;
17949;SDS011;9100;48.700;9.316;2023-07-13T03:50:06;1.7;;;1.6;;
17949;SDS011;9100;48.700;9.316;2023-07-13T03:51:06;1.7;;;1.6;;
17949;SDS011;9100;48.700;9.316;2023-07-13T03:51:19;1.6;;;1.5;;
17949;SDS011;9100;48.700;9.316;2023-07-13T03:52:06;1.6;;;1.5;;
17949;SDS011;9100;48.700;9.316;2023-07-13T03:53:06;1.6;;;1.5;;
17949;SDS011;9100;48.700;9.316;2023-07-13T03:54:06;1.6;;;1.5;;
17949;SDS011;9100;48.700;9.316;2023-07-13T03:55:06;1.6;;;1.5;;
17949;SDS011;9100;48.700;9.316;2023-07-13T03:56:06;1.6;;;1.5;;
17949;SDS011;9100;48.700;9.316;2023-07-13T03:56:19;2;;;1.5;;
17949;SDS011;9100;48.700;9.316;2023-07-13T03:57:08;2;;;1.5;;
17949;SDS011;9100;48.700;9.316;2023-07-13T03:58:39;2;;;1.5;;
17949;SDS011;9100;48.700;9.316;2023-07-13T03:59:06;2;;;1.5;;
17949;SDS011;9100;48.700;9.316;2023-07-13T04:00:06;2;;;1.5;;
17949;SDS011;9100;48.700;9.316;2023-07-13T04:01:07;2;;;1.5;;
17949;SDS011;9100;48.700;9.316;2023-07-13T04:01:20;1.6;;;1.5;;
17949;SDS011;9100;48.700;9.316;2023-07-13T04:02:06;1.6;;;1.5;;
17949;SDS011;9100;48.700;9.316;2023-07-13T04:03:06;1.6;;;1.5;;
17949;SDS011;9100;48.700;9.316;2023-07-13T04:04:06;1.6;;;1.5;;
17949;SDS011;9100;48.700;9.316;2023-07-13T04:05:06;1.6;;;1.5;;
17949;SDS011;9100;48.700;9.316;2023-07-13T04:06:07;1.6;;;1.5;;
17949;SDS011;9100;48.700;9.316;2023-07-13T04:06:20;2.8;;;1.7;;
17949;SDS011;9100;48.700;9.316;2023-07-13T04:07:06;2.8;;;1.7;;
17949;SDS011;9100;48.700;9.316;2023-07-13T04:08:06;2.8;;;1.7;;
17949;SDS011;9100;48.700;9.316;2023-07-13T04:09:06;2.8;;;1.7;;
17949;SDS011;9100;48.700;9.316;2023-07-13T04:10:06;2.8;;;1.7;;
17949;SDS011;9100;48.700;9.316;2023-07-13T04:11:06;2.8;;;1.7;;
17949;SDS011;9100;48.700;9.316;2023-07-13T04:11:20;3.4;;;1.4;;
17949;SDS011;9100;48.700;9.316;2023-07-13T04:12:06;3.4;;;1.4;;
17949;SDS011;9100;48.700;9.316;2023-07-13T04:13:06;3.4;;;1.4;;
17949;SDS011;9100;48.700;9.316;2023-07-13T04:14:06;3.4;;;1.4;;
17949;SDS011;9100;48.700;9.316;2023-07-13T04:15:06;3.4;;;1.4;;
17949;SDS011;9100;48.700;9.316;2023-07-13T04:16:06;3.4;;;1.4;;
17949;SDS011;9100;48.700;9.316;2023-07-13T04:16:19;2.8;;;1.7;;
17949;SDS011;9100;48.700;9.316;2023-07-13T04:17:06;2.8;;;1.7;;
17949;SDS011;9100;48.700;9.316;2023-07-13T04:18:06;2.8;;;1.7;;
17949;SDS011;9100;48.700;9.316;2023-07-13T04:19:06;2.8;;;1.7;;
17949;SDS011;9100;48.700;9.316;2023-07-13T04:20:06;2.8;;;1.7;;
17949;SDS011;9100;48.700;9.316;2023-07-13T04:21:06;2.8;;;1.7;;
17949;SDS011;9100;48.700;9.316;2023-07-13T04:21:19;3.1;;;1.8;;
17949;SDS011;9100;48.700;9.316;2023-07-13T04:22:06;3.1;;;1.8;;
17949;SDS011;9100;48.700;9.316;2023-07-13T04:23:06;3.1;;;1.8;;
17949;SDS011;9100;48.700;9.316;2023-07-13T04:24:06;3.1;;;1.8;;
17949;SDS011;9100;48.700;9.316;2023-07-13T04:25:06;3.1;;;1.8;;
17949;SDS011;9100;48.700;9.316;2023-07-13T04:26:06;3.1;;;1.8;;
17949;SDS011;9100;48.700;9.316;2023-07-13T04:26:19;2;;;1.6;;
17949;SDS011;9100;48.700;9.316;2023-07-13T04:27:06;2;;;1.6;;
17949;SDS011;9100;48.700;9.316;2023-07-13T04:28:06;2;;;1.6;;
17949;SDS011;9100;48.700;9.316;2023-07-13T04:29:06;2;;;1.6;;
17949;SDS011;9100;48.700;9.316;2023-07-13T04:30:06;2;;;1.6;;
17949;SDS011;9100;48.700;9.316;2023-07-13T04:31:06;2;;;1.6;;
17949;SDS011;9100;48.700;9.316;2023-07-13T04:31:19;3.4;;;1.5;;
17949;SDS011;9100;48.700;9.316;2023-07-13T04:32:06;3.4;;;1.5;;
17949;SDS011;9100;48.700;9.316;2023-07-13T04:33:06;3.4;;;1.5;;
17949;SDS011;9100;48.700;9.316;2023-07-13T04:34:06;3.4;;;1.5;;
17949;SDS011;9100;48.700;9.316;2023-07-13T04:35:06;3.4;;;1.5;;
17949;SDS011;9100;48.700;9.316;2023-07-13T04:36:06;3.4;;;1.5;;
17949;SDS011;9100;48.700;9.316;2023-07-13T04:36:19;5.5;;;1.5;;
17949;SDS011;9100;48.700;9.316;2023-07-13T04:37:06;5.5;;;1.5;;
17949;SDS011;9100;48.700;9.316;2023-07-13T04:38:06;5.5;;;1.5;;
17949;SDS011;9100;48.700;9.316;2023-07-13T04:39:06;5.5;;;1.5;;
17949;SDS011;9100;48.700;9.316;2023-07-13T04:40:07;5.5;;;1.5;;
17949;SDS011;9100;48.700;9.316;2023-07-13T04:41:06;5.5;;;1.5;;
17949;SDS011;9100;48.700;9.316;2023-07-13T04:41:20;4.8;;;1.9;;
17949;SDS011;9100;48.700;9.316;2023-07-13T04:42:06;4.8;;;1.9;;
17949;SDS011;9100;48.700;9.316;2023-07-13T04:43:06;4.8;;;1.9;;
17949;SDS011;9100;48.700;9.316;2023-07-13T04:44:06;4.8;;;1.9;;
17949;SDS011;9100;48.700;9.316;2023-07-13T04:45:06;4.8;;;1.9;;
17949;SDS011;9100;48.700;9.316;2023-07-13T04:46:07;4.8;;;1.9;;
17949;SDS011;9100;48.700;9.316;2023-07-13T04:46:19;6.4;;;1.8;;
17949;SDS011;9100;48.700;9.316;2023-07-13T04:47:06;6.4;;;1.8;;
17949;SDS011;9100;48.700;9.316;2023-07-13T04:48:06;6.4;;;1.8;;
17949;SDS011;9100;48.700;9.316;2023-07-13T04:49:06;6.4;;;1.8;;
17949;SDS011;9100;48.700;9.316;2023-07-13T04:50:06;6.4;;;1.8;;
17949;SDS011;9100;48.700;9.316;2023-07-13T04:51:06;6.4;;;1.8;;
17949;SDS011;9100;48.700;9.316;2023-07-13T04:51:19;1.6;;;1.5;;
17949;SDS011;9100;48.700;9.316;2023-07-13T04:52:06;1.6;;;1.5;;
17949;SDS011;9100;48.700;9.316;2023-07-13T04:53:06;1.6;;;1.5;;
17949;SDS011;9100;48.700;9.316;2023-07-13T04:54:06;1.6;;;1.5;;
17949;SDS011;9100;48.700;9.316;2023-07-13T04:55:06;1.6;;;1.5;;
17949;SDS011;9100;48.700;9.316;2023-07-13T04:56:06;1.6;;;1.5;;
17949;SDS011;9100;48.700;9.316;2023-07-13T04:56:19;4.7;;;1.7;;
17949;SDS011;9100;48.700;9.316;2023-07-13T04:57:06;4.7;;;1.7;;
17949;SDS011;9100;48.700;9.316;2023-07-13T04:58:06;4.7;;;1.7;;
17949;SDS011;9100;48.700;9.316;2023-07-13T04:59:06;4.7;;;1.7;;
17949;SDS011;9100;48.700;9.316;2023-07-13T05:00:07;4.7;;;1.7;;
17949;SDS011;9100;48.700;9.316;2023-07-13T05:01:06;4.7;;;1.7;;
17949;SDS011;9100;48.700;9.316;2023-07-13T05:01:19;1.7;;;1.6;;
17949;SDS011;9100;48.700;9.316;2023-07-13T05:02:06;1.7;;;1.6;;
17949;SDS011;9100;48.700;9.316;2023-07-13T05:03:06;1.7;;;1.6;;
17949;SDS011;9100;48.700;9.316;2023-07-13T05:04:06;1.7;;;1.6;;
17949;SDS011;9100;48.700;9.316;2023-07-13T05:05:06;1.7;;;1.6;;
17949;SDS011;9100;48.700;9.316;2023-07-13T05:06:07;1.7;;;1.6;;
17949;SDS011;9100;48.700;9.316;2023-07-13T05:06:19;2.2;;;1.4;;
17949;SDS011;9100;48.700;9.316;2023-07-13T05:07:06;2.2;;;1.4;;
17949;SDS011;9100;48.700;9.316;2023-07-13T05:08:06;2.2;;;1.4;;
17949;SDS011;9100;48.700;9.316;2023-07-13T05:09:06;2.2;;;1.4;;
17949;SDS011;9100;48.700;9.316;2023-07-13T05:10:07;2.2;;;1.4;;
17949;SDS011;9100;48.700;9.316;2023-07-13T05:11:06;2.2;;;1.4;;
17949;SDS011;9100;48.700;9.316;2023-07-13T05:11:19;3.9;;;1.3;;
17949;SDS011;9100;48.700;9.316;2023-07-13T05:12:06;3.9;;;1.3;;
17949;SDS011;9100;48.700;9.316;2023-07-13T05:13:06;3.9;;;1.3;;
17949;SDS011;9100;48.700;9.316;2023-07-13T05:14:06;3.9;;;1.3;;
17949;SDS011;9100;48.700;9.316;2023-07-13T05:15:07;3.9;;;1.3;;
17949;SDS011;9100;48.700;9.316;2023-07-13T05:16:06;3.9;;;1.3;;
17949;SDS011;9100;48.700;9.316;2023-07-13T05:16:19;1.4;;;1.3;;
17949;SDS011;9100;48.700;9.316;2023-07-13T05:17:06;1.4;;;1.3;;
17949;SDS011;9100;48.700;9.316;2023-07-13T05:18:06;1.4;;;1.3;;
17949;SDS011;9100;48.700;9.316;2023-07-13T05:19:06;1.4;;;1.3;;
17949;SDS011;9100;48.700;9.316;2023-07-13T05:20:07;1.4;;;1.3;;
17949;SDS011;9100;48.700;9.316;2023-07-13T05:21:07;1.4;;;1.3;;
17949;SDS011;9100;48.700;9.316;2023-07-13T05:21:19;3.6;;;1.8;;
17949;SDS011;9100;48.700;9.316;2023-07-13T05:22:06;3.6;;;1.8;;
17949;SDS011;9100;48.700;9.316;2023-07-13T05:23:06;3.6;;;1.8;;
17949;SDS011;9100;48.700;9.316;2023-07-13T05:24:06;3.6;;;1.8;;
17949;SDS011;9100;48.700;9.316;2023-07-13T05:25:07;3.6;;;1.8;;
17949;SDS011;9100;48.700;9.316;2023-07-13T05:26:06;3.6;;;1.8;;
17949;SDS011;9100;48.700;9.316;2023-07-13T05:26:19;4.1;;;1.6;;
17949;SDS011;9100;48.700;9.316;2023-07-13T05:27:06;4.1;;;1.6;;
17949;SDS011;9100;48.700;9.316;2023-07-13T05:28:06;4.1;;;1.6;;
17949;SDS011;9100;48.700;9.316;2023-07-13T05:29:06;4.1;;;1.6;;
17949;SDS011;9100;48.700;9.316;2023-07-13T05:30:06;4.1;;;1.6;;
17949;SDS011;9100;48.700;9.316;2023-07-13T05:31:06;4.1;;;1.6;;
17949;SDS011;9100;48.700;9.316;2023-07-13T05:31:19;3.7;;;1.9;;
17949;SDS011;9100;48.700;9.316;2023-07-13T05:32:06;3.7;;;1.9;;
17949;SDS011;9100;48.700;9.316;2023-07-13T05:33:06;3.7;;;1.9;;
17949;SDS011;9100;48.700;9.316;2023-07-13T05:34:06;3.7;;;1.9;;
17949;SDS011;9100;48.700;9.316;2023-07-13T05:35:06;3.7;;;1.9;;
17949;SDS011;9100;48.700;9.316;2023-07-13T05:36:06;3.7;;;1.9;;
17949;SDS011;9100;48.700;9.316;2023-07-13T05:36:19;2.9;;;1.8;;
17949;SDS011;9100;48.700;9.316;2023-07-13T05:37:07;2.9;;;1.8;;
17949;SDS011;9100;48.700;9.316;2023-07-13T05:38:06;2.9;;;1.8;;
17949;SDS011;9100;48.700;9.316;2023-07-13T05:39:06;2.9;;;1.8;;
17949;SDS011;9100;48.700;9.316;2023-07-13T05:40:07;2.9;;;1.8;;
17949;SDS011;9100;48.700;9.316;2023-07-13T05:41:06;2.9;;;1.8;;
17949;SDS011;9100;48.700;9.316;2023-07-13T05:41:19;3.1;;;1.6;;
17949;SDS011;9100;48.700;9.316;2023-07-13T05:42:06;3.1;;;1.6;;
17949;SDS011;9100;48.700;9.316;2023-07-13T05:43:06;3.1;;;1.6;;
17949;SDS011;9100;48.700;9.316;2023-07-13T05:44:06;3.1;;;1.6;;
17949;SDS011;9100;48.700;9.316;2023-07-13T05:45:07;3.1;;;1.6;;
17949;SDS011;9100;48.700;9.316;2023-07-13T05:46:06;3.1;;;1.6;;
17949;SDS011;9100;48.700;9.316;2023-07-13T05:46:19;1.8;;;1.5;;
17949;SDS011;9100;48.700;9.316;2023-07-13T05:47:06;1.8;;;1.5;;
17949;SDS011;9100;48.700;9.316;2023-07-13T05:48:06;1.8;;;1.5;;
17949;SDS011;9100;48.700;9.316;2023-07-13T05:49:06;1.8;;;1.5;;
17949;SDS011;9100;48.700;9.316;2023-07-13T05:50:07;1.8;;;1.5;;
17949;SDS011;9100;48.700;9.316;2023-07-13T05:51:06;1.8;;;1.5;;
17949;SDS011;9100;48.700;9.316;2023-07-13T05:51:19;3.3;;;1.7;;
17949;SDS011;9100;48.700;9.316;2023-07-13T05:52:06;3.3;;;1.7;;
17949;SDS011;9100;48.700;9.316;2023-07-13T05:53:06;3.3;;;1.7;;
17949;SDS011;9100;48.700;9.316;2023-07-13T05:54:06;3.3;;;1.7;;
17949;SDS011;9100;48.700;9.316;2023-07-13T05:55:07;3.3;;;1.7;;
17949;SDS011;9100;48.700;9.316;2023-07-13T05:56:06;3.3;;;1.7;;
17949;SDS011;9100;48.700;9.316;2023-07-13T05:56:19;2.2;;;1.4;;
17949;SDS011;9100;48.700;9.316;2023-07-13T05:57:06;2.2;;;1.4;;
17949;SDS011;9100;48.700;9.316;2023-07-13T05:58:06;2.2;;;1.4;;